sensor_id;sensor_type;location;lat;lon;timestamp;pressure;altitude;pressure_sealevel;temperature;humidity
39739;BME280;25422;48.286;8.484;2023-02-03T00:01:47;95339.34;;;0.91;100.00
39739;BME280;25422;48.286;8.484;2023-02-03T00:04:12;95340.25;;;0.90;100.00
39739;BME280;25422;48.286;8.484;2023-02-03T00:06:38;95342.00;;;0.90;100.00
39739;BME280;25422;48.286;8.484;2023-02-03T00:09:04;95332.41;;;0.92;100.00
39739;BME280;25422;48.286;8.484;2023-02-03T00:11:30;95335.50;;;0.98;100.00
39739;BME280;25422;48.286;8.484;2023-02-03T00:13:56;95340.91;;;0.94;100.00
39739;BME280;25422;48.286;8.484;2023-02-03T00:16:22;95342.31;;;0.99;100.00
39739;BME280;25422;48.286;8.484;2023-02-03T00:18:47;95335.69;;;0.95;100.00
39739;BME280;25422;48.286;8.484;2023-02-03T00:21:13;95337.91;;;1.01;100.00
39739;BME280;25422;48.286;8.484;2023-02-03T00:23:40;95333.00;;;0.97;100.00
39739;BME280;25422;48.286;8.484;2023-02-03T00:26:10;95329.44;;;0.99;100.00
39739;BME280;25422;48.286;8.484;2023-02-03T00:28:37;95335.25;;;1.03;100.00
39739;BME280;25422;48.286;8.484;2023-02-03T00:31:03;95333.69;;;1.00;100.00
39739;BME280;25422;48.286;8.484;2023-02-03T00:33:28;95343.91;;;1.02;100.00
39739;BME280;25422;48.286;8.484;2023-02-03T00:35:54;95339.66;;;1.01;100.00
39739;BME280;25422;48.286;8.484;2023-02-03T00:38:19;95343.81;;;1.04;100.00
39739;BME280;25422;48.286;8.484;2023-02-03T00:40:52;95342.16;;;1.03;100.00
39739;BME280;25422;48.286;8.484;2023-02-03T00:43:18;95345.63;;;1.01;100.00
39739;BME280;25422;48.286;8.484;2023-02-03T00:45:43;95344.00;;;1.00;100.00
39739;BME280;25422;48.286;8.484;2023-02-03T00:48:08;95348.38;;;0.98;100.00
39739;BME280;25422;48.286;8.484;2023-02-03T00:50:34;95342.16;;;1.03;100.00
39739;BME280;25422;48.286;8.484;2023-02-03T00:52:59;95352.28;;;1.06;100.00
39739;BME280;25422;48.286;8.484;2023-02-03T00:55:24;95336.00;;;1.05;100.00
39739;BME280;25422;48.286;8.484;2023-02-03T00:57:50;95319.53;;;1.08;100.00
39739;BME280;25422;48.286;8.484;2023-02-03T01:00:17;95308.41;;;1.07;100.00
39739;BME280;25422;48.286;8.484;2023-02-03T01:02:42;95304.81;;;1.10;100.00
39739;BME280;25422;48.286;8.484;2023-02-03T01:05:08;95320.38;;;1.08;100.00
39739;BME280;25422;48.286;8.484;2023-02-03T01:07:33;95323.88;;;1.07;100.00
39739;BME280;25422;48.286;8.484;2023-02-03T01:09:59;95318.78;;;1.06;100.00
39739;BME280;25422;48.286;8.484;2023-02-03T01:12:24;95334.91;;;1.09;100.00
39739;BME280;25422;48.286;8.484;2023-02-03T01:14:50;95336.81;;;1.06;100.00
39739;BME280;25422;48.286;8.484;2023-02-03T01:17:15;95336.00;;;1.05;100.00
39739;BME280;25422;48.286;8.484;2023-02-03T01:19:41;95340.16;;;1.08;100.00
39739;BME280;25422;48.286;8.484;2023-02-03T01:22:06;95342.91;;;1.05;100.00
39739;BME280;25422;48.286;8.484;2023-02-03T01:24:31;95337.69;;;1.06;100.00
39739;BME280;25422;48.286;8.484;2023-02-03T01:26:57;95336.78;;;1.07;100.00
39739;BME280;25422;48.286;8.484;2023-02-03T01:29:23;95339.34;;;1.07;100.00
39739;BME280;25422;48.286;8.484;2023-02-03T01:31:48;95343.66;;;1.07;100.00
39739;BME280;25422;48.286;8.484;2023-02-03T01:34:14;95348.88;;;1.05;100.00
39739;BME280;25422;48.286;8.484;2023-02-03T01:36:43;95346.50;;;1.02;100.00
39739;BME280;25422;48.286;8.484;2023-02-03T01:39:08;95335.31;;;1.01;100.00
39739;BME280;25422;48.286;8.484;2023-02-03T01:41:37;95337.25;;;0.98;100.00
39739;BME280;25422;48.286;8.484;2023-02-03T01:50:12;95318.53;;;0.94;100.00
39739;BME280;25422;48.286;8.484;2023-02-03T01:52:41;95321.13;;;0.94;100.00
39739;BME280;25422;48.286;8.484;2023-02-03T01:55:11;95301.31;;;0.95;100.00
39739;BME280;25422;48.286;8.484;2023-02-03T01:57:49;95293.53;;;0.96;100.00
39739;BME280;25422;48.286;8.484;2023-02-03T02:00:16;95283.28;;;0.95;100.00
39739;BME280;25422;48.286;8.484;2023-02-03T02:02:43;95290.13;;;0.96;100.00
39739;BME280;25422;48.286;8.484;2023-02-03T02:05:16;95275.31;;;0.99;100.00
39739;BME280;25422;48.286;8.484;2023-02-03T02:07:43;95275.72;;;0.92;100.00
39739;BME280;25422;48.286;8.484;2023-02-03T02:10:10;95270.59;;;0.92;100.00
39739;BME280;25422;48.286;8.484;2023-02-03T02:12:35;95271.50;;;0.91;100.00
39739;BME280;25422;48.286;8.484;2023-02-03T02:15:01;95277.31;;;0.94;100.00
39739;BME280;25422;48.286;8.484;2023-02-03T02:17:32;95288.31;;;0.98;100.00
39739;BME280;25422;48.286;8.484;2023-02-03T02:33:41;95310.06;;;1.08;100.00
39739;BME280;25422;48.286;8.484;2023-02-03T02:41:27;95279.31;;;1.05;100.00
39739;BME280;25422;48.286;8.484;2023-02-03T02:44:06;95269.16;;;1.02;100.00
39739;BME280;25422;48.286;8.484;2023-02-03T02:46:40;95270.09;;;1.01;100.00
39739;BME280;25422;48.286;8.484;2023-02-03T02:51:53;95233.81;;;1.04;100.00
39739;BME280;25422;48.286;8.484;2023-02-03T02:54:23;95232.91;;;1.05;100.00
39739;BME280;25422;48.286;8.484;2023-02-03T02:56:53;95219.28;;;1.03;100.00
39739;BME280;25422;48.286;8.484;2023-02-03T02:59:21;95225.50;;;0.99;100.00
39739;BME280;25422;48.286;8.484;2023-02-03T03:01:47;95243.31;;;1.04;100.00
39739;BME280;25422;48.286;8.484;2023-02-03T03:04:16;95238.75;;;1.09;100.00
39739;BME280;25422;48.286;8.484;2023-02-03T03:06:47;95226.75;;;1.08;100.00
39739;BME280;25422;48.286;8.484;2023-02-03T03:09:18;95234.72;;;1.03;100.00
39739;BME280;25422;48.286;8.484;2023-02-03T03:12:03;95246.81;;;1.03;100.00
39739;BME280;25422;48.286;8.484;2023-02-03T03:14:31;95249.56;;;0.99;100.00
39739;BME280;25422;48.286;8.484;2023-02-03T03:17:06;95246.56;;;1.07;100.00
39739;BME280;25422;48.286;8.484;2023-02-03T03:19:38;95241.31;;;1.09;100.00
39739;BME280;25422;48.286;8.484;2023-02-03T03:22:10;95238.19;;;1.18;100.00
39739;BME280;25422;48.286;8.484;2023-02-03T03:24:41;95236.06;;;1.10;100.00
39739;BME280;25422;48.286;8.484;2023-02-03T03:27:20;95236.72;;;1.14;100.00
39739;BME280;25422;48.286;8.484;2023-02-03T03:29:53;95248.13;;;1.10;100.00
39739;BME280;25422;48.286;8.484;2023-02-03T03:32:21;95247.28;;;1.09;100.00
39739;BME280;25422;48.286;8.484;2023-02-03T03:34:47;95240.56;;;1.07;100.00
39739;BME280;25422;48.286;8.484;2023-02-03T03:37:18;95235.06;;;1.13;100.00
39739;BME280;25422;48.286;8.484;2023-02-03T03:39:48;95236.66;;;1.15;100.00
39739;BME280;25422;48.286;8.484;2023-02-03T03:45:31;95259.50;;;1.06;100.00
39739;BME280;25422;48.286;8.484;2023-02-03T03:48:26;95241.56;;;1.04;100.00
39739;BME280;25422;48.286;8.484;2023-02-03T03:51:11;95228.94;;;0.99;100.00
39739;BME280;25422;48.286;8.484;2023-02-03T03:53:41;95222.53;;;0.91;100.00
39739;BME280;25422;48.286;8.484;2023-02-03T03:56:11;95211.59;;;0.87;100.00
39739;BME280;25422;48.286;8.484;2023-02-03T03:58:41;95210.34;;;0.78;100.00
39739;BME280;25422;48.286;8.484;2023-02-03T04:01:09;95215.00;;;0.72;100.00
39739;BME280;25422;48.286;8.484;2023-02-03T04:03:43;95226.47;;;0.82;100.00
39739;BME280;25422;48.286;8.484;2023-02-03T04:06:10;95232.59;;;0.79;100.00
39739;BME280;25422;48.286;8.484;2023-02-03T04:08:36;95250.66;;;0.79;100.00
39739;BME280;25422;48.286;8.484;2023-02-03T04:11:01;95261.84;;;0.78;100.00
39739;BME280;25422;48.286;8.484;2023-02-03T04:13:26;95275.59;;;0.79;100.00
39739;BME280;25422;48.286;8.484;2023-02-03T04:15:52;95276.41;;;0.79;100.00
39739;BME280;25422;48.286;8.484;2023-02-03T04:18:17;95279.16;;;0.76;100.00
39739;BME280;25422;48.286;8.484;2023-02-03T04:20:43;95277.56;;;0.74;100.00
39739;BME280;25422;48.286;8.484;2023-02-03T04:23:08;95270.66;;;0.74;100.00
39739;BME280;25422;48.286;8.484;2023-02-03T04:25:34;95285.94;;;0.77;100.00
39739;BME280;25422;48.286;8.484;2023-02-03T04:28:00;95279.97;;;0.77;100.00
39739;BME280;25422;48.286;8.484;2023-02-03T04:30:26;95281.38;;;0.82;100.00
39739;BME280;25422;48.286;8.484;2023-02-03T04:32:51;95279.66;;;0.83;100.00
39739;BME280;25422;48.286;8.484;2023-02-03T04:35:17;95271.94;;;0.83;100.00
39739;BME280;25422;48.286;8.484;2023-02-03T04:37:43;95281.38;;;0.82;100.00
39739;BME280;25422;48.286;8.484;2023-02-03T04:40:09;95255.63;;;0.82;100.00
39739;BME280;25422;48.286;8.484;2023-02-03T04:42:39;95262.13;;;0.74;100.00
39739;BME280;25422;48.286;8.484;2023-02-03T04:45:06;95268.75;;;0.62;100.00
39739;BME280;25422;48.286;8.484;2023-02-03T04:47:32;95274.31;;;0.54;100.00
39739;BME280;25422;48.286;8.484;2023-02-03T04:49:57;95272.06;;;0.48;100.00
39739;BME280;25422;48.286;8.484;2023-02-03T04:52:23;95280.63;;;0.48;100.00
39739;BME280;25422;48.286;8.484;2023-02-03T04:54:48;95288.84;;;0.55;100.00
39739;BME280;25422;48.286;8.484;2023-02-03T04:57:13;95301.00;;;0.53;100.00
39739;BME280;25422;48.286;8.484;2023-02-03T04:59:39;95286.63;;;0.49;100.00
39739;BME280;25422;48.286;8.484;2023-02-03T05:02:04;95288.13;;;0.53;100.00
39739;BME280;25422;48.286;8.484;2023-02-03T05:04:30;95275.06;;;0.56;100.00
39739;BME280;25422;48.286;8.484;2023-02-03T05:06:56;95264.75;;;0.56;100.00
39739;BME280;25422;48.286;8.484;2023-02-03T05:09:23;95246.16;;;0.51;100.00
39739;BME280;25422;48.286;8.484;2023-02-03T05:11:49;95236.75;;;0.50;100.00
39739;BME280;25422;48.286;8.484;2023-02-03T05:14:14;95224.97;;;0.46;100.00
39739;BME280;25422;48.286;8.484;2023-02-03T05:16:40;95249.88;;;0.45;100.00
39739;BME280;25422;48.286;8.484;2023-02-03T05:19:05;95241.25;;;0.46;100.00
39739;BME280;25422;48.286;8.484;2023-02-03T05:21:30;95230.28;;;0.43;100.00
39739;BME280;25422;48.286;8.484;2023-02-03T05:23:56;95229.69;;;0.38;100.00
39739;BME280;25422;48.286;8.484;2023-02-03T05:26:21;95231.09;;;0.43;100.00
39739;BME280;25422;48.286;8.484;2023-02-03T05:28:47;95237.59;;;0.50;100.00
39739;BME280;25422;48.286;8.484;2023-02-03T05:31:12;95234.34;;;0.47;100.00
39739;BME280;25422;48.286;8.484;2023-02-03T05:33:37;95243.34;;;0.56;100.00
39739;BME280;25422;48.286;8.484;2023-02-03T05:36:03;95247.31;;;0.61;100.00
39739;BME280;25422;48.286;8.484;2023-02-03T05:38:28;95258.22;;;0.66;100.00
39739;BME280;25422;48.286;8.484;2023-02-03T05:40:54;95253.53;;;0.73;100.00
39739;BME280;25422;48.286;8.484;2023-02-03T05:43:37;95265.59;;;0.73;100.00
39739;BME280;25422;48.286;8.484;2023-02-03T05:46:04;95262.84;;;0.76;100.00
39739;BME280;25422;48.286;8.484;2023-02-03T05:48:30;95265.44;;;0.76;100.00
39739;BME280;25422;48.286;8.484;2023-02-03T05:50:56;95262.34;;;0.85;100.00
39739;BME280;25422;48.286;8.484;2023-02-03T05:53:22;95269.19;;;0.86;100.00
39739;BME280;25422;48.286;8.484;2023-02-03T05:55:47;95274.25;;;0.88;100.00
39739;BME280;25422;48.286;8.484;2023-02-03T05:58:13;95285.63;;;0.83;100.00
39739;BME280;25422;48.286;8.484;2023-02-03T06:00:38;95285.63;;;0.83;100.00
39739;BME280;25422;48.286;8.484;2023-02-03T06:03:04;95291.47;;;0.87;100.00
39739;BME280;25422;48.286;8.484;2023-02-03T06:05:31;95304.47;;;0.84;100.00
39739;BME280;25422;48.286;8.484;2023-02-03T06:07:56;95307.75;;;0.88;100.00
39739;BME280;25422;48.286;8.484;2023-02-03T06:10:22;95312.06;;;0.87;100.00
39739;BME280;25422;48.286;8.484;2023-02-03T06:12:48;95315.38;;;0.89;100.00
39739;BME280;25422;48.286;8.484;2023-02-03T06:15:14;95338.56;;;0.89;100.00
39739;BME280;25422;48.286;8.484;2023-02-03T06:17:43;95336.75;;;0.91;100.00
39739;BME280;25422;48.286;8.484;2023-02-03T06:20:10;95324.50;;;0.95;100.00
39739;BME280;25422;48.286;8.484;2023-02-03T06:22:36;95312.56;;;0.94;100.00
39739;BME280;25422;48.286;8.484;2023-02-03T06:25:02;95285.88;;;0.95;100.00
39739;BME280;25422;48.286;8.484;2023-02-03T06:27:27;95295.63;;;0.90;100.00
39739;BME280;25422;48.286;8.484;2023-02-03T06:29:52;95289.38;;;0.94;100.00
39739;BME280;25422;48.286;8.484;2023-02-03T06:32:18;95293.59;;;0.95;100.00
39739;BME280;25422;48.286;8.484;2023-02-03T06:34:43;95287.03;;;0.89;100.00
39739;BME280;25422;48.286;8.484;2023-02-03T06:37:09;95287.94;;;0.88;100.00
39739;BME280;25422;48.286;8.484;2023-02-03T06:39:34;95295.69;;;0.88;100.00
39739;BME280;25422;48.286;8.484;2023-02-03T06:42:00;95282.47;;;0.94;100.00
39739;BME280;25422;48.286;8.484;2023-02-03T06:44:26;95280.81;;;0.93;100.00
39739;BME280;25422;48.286;8.484;2023-02-03T06:46:51;95275.66;;;0.93;100.00
39739;BME280;25422;48.286;8.484;2023-02-03T06:49:17;95262.84;;;0.92;100.00
39739;BME280;25422;48.286;8.484;2023-02-03T06:51:43;95260.53;;;0.87;100.00
39739;BME280;25422;48.286;8.484;2023-02-03T06:54:10;95240.75;;;1.04;100.00
39739;BME280;25422;48.286;8.484;2023-02-03T06:56:35;95246.22;;;0.97;100.00
39739;BME280;25422;48.286;8.484;2023-02-03T06:59:01;95244.22;;;1.03;100.00
39739;BME280;25422;48.286;8.484;2023-02-03T07:01:27;95246.22;;;0.97;100.00
39739;BME280;25422;48.286;8.484;2023-02-03T07:03:54;95222.59;;;1.05;100.00
39739;BME280;25422;48.286;8.484;2023-02-03T07:06:23;95236.59;;;1.01;100.00
39739;BME280;25422;48.286;8.484;2023-02-03T07:08:54;95247.78;;;1.00;100.00
39739;BME280;25422;48.286;8.484;2023-02-03T07:11:19;95238.25;;;1.02;100.00
39739;BME280;25422;48.286;8.484;2023-02-03T07:13:45;95232.25;;;1.01;100.00
39739;BME280;25422;48.286;8.484;2023-02-03T07:16:10;95236.16;;;1.09;100.00
39739;BME280;25422;48.286;8.484;2023-02-03T07:18:35;95245.53;;;1.10;100.00
39739;BME280;25422;48.286;8.484;2023-02-03T07:21:03;95249.88;;;1.09;100.00
39739;BME280;25422;48.286;8.484;2023-02-03T07:23:29;95247.13;;;1.12;100.00
39739;BME280;25422;48.286;8.484;2023-02-03T07:25:58;95254.03;;;1.12;100.00
39739;BME280;25422;48.286;8.484;2023-02-03T07:28:23;95252.34;;;1.11;100.00
39739;BME280;25422;48.286;8.484;2023-02-03T07:30:49;95263.97;;;1.18;100.00
39739;BME280;25422;48.286;8.484;2023-02-03T07:33:14;95258.59;;;1.23;100.00
39739;BME280;25422;48.286;8.484;2023-02-03T07:35:40;95264.75;;;1.20;100.00
39739;BME280;25422;48.286;8.484;2023-02-03T07:38:05;95255.09;;;1.24;100.00
39739;BME280;25422;48.286;8.484;2023-02-03T07:40:30;95251.53;;;1.26;100.00
39739;BME280;25422;48.286;8.484;2023-02-03T07:42:56;95234.19;;;1.28;100.00
39739;BME280;25422;48.286;8.484;2023-02-03T07:45:21;95247.00;;;1.30;100.00
39739;BME280;25422;48.286;8.484;2023-02-03T07:47:49;95263.31;;;1.30;100.00
39739;BME280;25422;48.286;8.484;2023-02-03T07:50:14;95241.41;;;1.38;100.00
39739;BME280;25422;48.286;8.484;2023-02-03T07:52:40;95244.00;;;1.38;100.00
39739;BME280;25422;48.286;8.484;2023-02-03T07:55:06;95246.28;;;1.42;100.00
39739;BME280;25422;48.286;8.484;2023-02-03T07:57:31;95244.47;;;1.44;100.00
39739;BME280;25422;48.286;8.484;2023-02-03T07:59:57;95246.88;;;1.47;100.00
39739;BME280;25422;48.286;8.484;2023-02-03T08:02:22;95242.56;;;1.48;100.00
39739;BME280;25422;48.286;8.484;2023-02-03T08:04:47;95247.34;;;1.54;100.00
39739;BME280;25422;48.286;8.484;2023-02-03T08:07:13;95250.94;;;1.51;100.00
39739;BME280;25422;48.286;8.484;2023-02-03T08:09:38;95256.28;;;1.48;100.00
39739;BME280;25422;48.286;8.484;2023-02-03T08:12:04;95254.53;;;1.49;100.00
39739;BME280;25422;48.286;8.484;2023-02-03T08:14:29;95264.75;;;1.50;100.00
39739;BME280;25422;48.286;8.484;2023-02-03T08:16:55;95266.31;;;1.53;100.00
39739;BME280;25422;48.286;8.484;2023-02-03T08:19:21;95269.75;;;1.54;100.00
39739;BME280;25422;48.286;8.484;2023-02-03T08:21:46;95283.47;;;1.54;100.00
39739;BME280;25422;48.286;8.484;2023-02-03T08:24:12;95268.56;;;1.59;100.00
39739;BME280;25422;48.286;8.484;2023-02-03T08:26:37;95262.72;;;1.56;100.00
39739;BME280;25422;48.286;8.484;2023-02-03T08:29:02;95264.41;;;1.57;100.00
39739;BME280;25422;48.286;8.484;2023-02-03T08:31:29;95269.38;;;1.60;100.00
39739;BME280;25422;48.286;8.484;2023-02-03T08:33:55;95270.13;;;1.62;100.00
39739;BME280;25422;48.286;8.484;2023-02-03T08:36:20;95258.91;;;1.63;100.00
39739;BME280;25422;48.286;8.484;2023-02-03T08:38:46;95271.03;;;1.61;100.00
39739;BME280;25422;48.286;8.484;2023-02-03T08:41:14;95271.88;;;1.61;100.00
39739;BME280;25422;48.286;8.484;2023-02-03T08:43:42;95283.94;;;1.61;100.00
39739;BME280;25422;48.286;8.484;2023-02-03T08:46:09;95296.03;;;1.60;100.00
39739;BME280;25422;48.286;8.484;2023-02-03T08:48:35;95305.25;;;1.64;100.00
39739;BME280;25422;48.286;8.484;2023-02-03T08:51:00;95297.22;;;1.69;100.00
39739;BME280;25422;48.286;8.484;2023-02-03T08:53:26;95265.00;;;1.76;100.00
39739;BME280;25422;48.286;8.484;2023-02-03T08:55:52;95279.56;;;1.77;100.00
39739;BME280;25422;48.286;8.484;2023-02-03T08:58:17;95282.13;;;1.77;100.00
39739;BME280;25422;48.286;8.484;2023-02-03T09:00:43;95298.47;;;1.78;100.00
39739;BME280;25422;48.286;8.484;2023-02-03T09:03:08;95303.63;;;1.78;100.00
39739;BME280;25422;48.286;8.484;2023-02-03T09:05:34;95317.63;;;1.74;100.00
39739;BME280;25422;48.286;8.484;2023-02-03T09:08:00;95329.34;;;1.79;100.00
39739;BME280;25422;48.286;8.484;2023-02-03T09:10:25;95336.50;;;1.74;100.00
39739;BME280;25422;48.286;8.484;2023-02-03T09:12:51;95343.25;;;1.77;100.00
39739;BME280;25422;48.286;8.484;2023-02-03T09:15:16;95349.59;;;1.71;100.00
39739;BME280;25422;48.286;8.484;2023-02-03T09:17:41;95334.13;;;1.71;100.00
39739;BME280;25422;48.286;8.484;2023-02-03T09:20:08;95323.13;;;1.67;100.00
39739;BME280;25422;48.286;8.484;2023-02-03T09:22:33;95334.16;;;1.69;100.00
39739;BME280;25422;48.286;8.484;2023-02-03T09:24:59;95347.91;;;1.70;100.00
39739;BME280;25422;48.286;8.484;2023-02-03T09:27:24;95345.59;;;1.65;100.00
39739;BME280;25422;48.286;8.484;2023-02-03T09:29:49;95339.69;;;1.63;100.00
39739;BME280;25422;48.286;8.484;2023-02-03T09:32:15;95329.09;;;1.68;100.00
39739;BME280;25422;48.286;8.484;2023-02-03T09:34:40;95332.25;;;1.73;100.00
39739;BME280;25422;48.286;8.484;2023-02-03T09:37:06;95345.06;;;1.75;100.00
39739;BME280;25422;48.286;8.484;2023-02-03T09:39:32;95337.59;;;1.70;100.00
39739;BME280;25422;48.286;8.484;2023-02-03T09:45:28;95338.66;;;1.82;100.00
39739;BME280;25422;48.286;8.484;2023-02-03T09:47:59;95330.38;;;1.91;100.00
39739;BME280;25422;48.286;8.484;2023-02-03T09:50:29;95314.72;;;1.94;100.00
39739;BME280;25422;48.286;8.484;2023-02-03T09:52:57;95307.28;;;2.04;100.00
39739;BME280;25422;48.286;8.484;2023-02-03T09:55:24;95308.84;;;2.07;100.00
39739;BME280;25422;48.286;8.484;2023-02-03T09:57:55;95321.00;;;2.05;100.00
39739;BME280;25422;48.286;8.484;2023-02-03T10:00:28;95332.09;;;2.07;100.00
39739;BME280;25422;48.286;8.484;2023-02-03T10:03:00;95329.69;;;2.04;100.00
39739;BME280;25422;48.286;8.484;2023-02-03T10:05:50;95319.28;;;2.34;100.00
39739;BME280;25422;48.286;8.484;2023-02-03T10:08:21;95327.88;;;2.20;100.00
39739;BME280;25422;48.286;8.484;2023-02-03T10:10:57;95316.59;;;2.21;100.00
39739;BME280;25422;48.286;8.484;2023-02-03T10:18:53;95310.91;;;2.16;100.00
39739;BME280;25422;48.286;8.484;2023-02-03T10:21:47;95317.16;;;2.12;100.00
39739;BME280;25422;48.286;8.484;2023-02-03T10:24:19;95315.50;;;2.11;100.00
39739;BME280;25422;48.286;8.484;2023-02-03T10:26:46;95314.94;;;2.20;100.00
39739;BME280;25422;48.286;8.484;2023-02-03T10:29:34;95323.13;;;2.12;100.00
39739;BME280;25422;48.286;8.484;2023-02-03T10:32:07;95324.63;;;2.16;100.00
39739;BME280;25422;48.286;8.484;2023-02-03T10:34:33;95330.72;;;2.30;100.00
39739;BME280;25422;48.286;8.484;2023-02-03T10:37:24;95321.88;;;2.34;100.00
39739;BME280;25422;48.286;8.484;2023-02-03T10:39:51;95315.44;;;2.27;100.00
39739;BME280;25422;48.286;8.484;2023-02-03T10:42:18;95298.91;;;2.29;100.00
39739;BME280;25422;48.286;8.484;2023-02-03T10:44:48;95294.66;;;2.57;100.00
39739;BME280;25422;48.286;8.484;2023-02-03T10:47:20;95303.34;;;2.70;100.00
39739;BME280;25422;48.286;8.484;2023-02-03T10:49:48;95302.13;;;2.76;100.00
39739;BME280;25422;48.286;8.484;2023-02-03T10:52:32;95303.78;;;2.77;100.00
39739;BME280;25422;48.286;8.484;2023-02-03T10:55:04;95309.41;;;2.84;100.00
39739;BME280;25422;48.286;8.484;2023-02-03T10:57:30;95299.63;;;2.75;100.00
39739;BME280;25422;48.286;8.484;2023-02-03T11:00:21;95287.25;;;2.80;100.00
39739;BME280;25422;48.286;8.484;2023-02-03T11:03:24;95304.13;;;3.00;100.00
39739;BME280;25422;48.286;8.484;2023-02-03T11:06:10;95315.84;;;2.91;100.00
39739;BME280;25422;48.286;8.484;2023-02-03T11:08:38;95307.38;;;2.89;100.00
39739;BME280;25422;48.286;8.484;2023-02-03T11:11:11;95316.41;;;2.82;100.00
39739;BME280;25422;48.286;8.484;2023-02-03T11:13:37;95309.59;;;2.81;100.00
39739;BME280;25422;48.286;8.484;2023-02-03T11:16:12;95312.47;;;2.76;100.00
39739;BME280;25422;48.286;8.484;2023-02-03T11:19:03;95304.78;;;2.89;100.00
39739;BME280;25422;48.286;8.484;2023-02-03T11:24:05;95284.63;;;2.94;100.00
39739;BME280;25422;48.286;8.484;2023-02-03T11:26:39;95265.25;;;3.01;100.00
39739;BME280;25422;48.286;8.484;2023-02-03T11:29:05;95274.03;;;3.26;100.00
39739;BME280;25422;48.286;8.484;2023-02-03T11:31:39;95235.84;;;3.57;100.00
39739;BME280;25422;48.286;8.484;2023-02-03T11:34:30;95256.13;;;3.63;100.00
39739;BME280;25422;48.286;8.484;2023-02-03T11:36:54;95269.06;;;3.63;100.00
39739;BME280;25422;48.286;8.484;2023-02-03T11:39:24;95267.13;;;3.80;100.00
39739;BME280;25422;48.286;8.484;2023-02-03T11:41:50;95260.69;;;3.72;100.00
39739;BME280;25422;48.286;8.484;2023-02-03T11:44:19;95255.53;;;3.72;100.00
39739;BME280;25422;48.286;8.484;2023-02-03T11:46:47;95241.00;;;3.57;100.00
39739;BME280;25422;48.286;8.484;2023-02-03T11:49:35;95246.84;;;3.99;100.00
39739;BME280;25422;48.286;8.484;2023-02-03T11:57:36;95212.69;;;3.81;100.00
39739;BME280;25422;48.286;8.484;2023-02-03T12:11:38;95213.66;;;3.13;100.00
39739;BME280;25422;48.286;8.484;2023-02-03T12:17:25;95205.59;;;3.04;100.00
39739;BME280;25422;48.286;8.484;2023-02-03T12:20:32;95211.88;;;3.00;100.00
39739;BME280;25422;48.286;8.484;2023-02-03T12:23:34;95216.31;;;2.98;100.00
39739;BME280;25422;48.286;8.484;2023-02-03T12:26:24;95219.94;;;2.96;100.00
39739;BME280;25422;48.286;8.484;2023-02-03T12:29:08;95216.25;;;2.85;100.00
39739;BME280;25422;48.286;8.484;2023-02-03T12:34:31;95221.19;;;2.76;100.00
39739;BME280;25422;48.286;8.484;2023-02-03T12:37:05;95217.66;;;2.77;100.00
39739;BME280;25422;48.286;8.484;2023-02-03T12:42:35;95230.22;;;2.68;100.00
39739;BME280;25422;48.286;8.484;2023-02-03T12:45:16;95220.63;;;2.70;100.00
39739;BME280;25422;48.286;8.484;2023-02-03T12:47:51;95208.84;;;2.66;100.00
39739;BME280;25422;48.286;8.484;2023-02-03T12:50:32;95216.78;;;2.63;100.00
39739;BME280;25422;48.286;8.484;2023-02-03T12:53:03;95223.06;;;2.59;100.00
39739;BME280;25422;48.286;8.484;2023-02-03T12:55:36;95229.25;;;2.57;100.00
39739;BME280;25422;48.286;8.484;2023-02-03T12:58:10;95217.91;;;2.59;100.00
39739;BME280;25422;48.286;8.484;2023-02-03T13:00:43;95221.22;;;2.61;100.00
39739;BME280;25422;48.286;8.484;2023-02-03T13:03:17;95203.13;;;2.61;100.00
39739;BME280;25422;48.286;8.484;2023-02-03T13:06:10;95211.78;;;2.60;100.00
39739;BME280;25422;48.286;8.484;2023-02-03T13:08:49;95227.94;;;2.49;100.00
39739;BME280;25422;48.286;8.484;2023-02-03T13:11:25;95218.47;;;2.50;100.00
39739;BME280;25422;48.286;8.484;2023-02-03T13:14:02;95220.19;;;2.49;100.00
39739;BME280;25422;48.286;8.484;2023-02-03T13:16:35;95207.84;;;2.55;100.00
39739;BME280;25422;48.286;8.484;2023-02-03T13:19:09;95216.44;;;2.55;100.00
39739;BME280;25422;48.286;8.484;2023-02-03T13:21:37;95217.06;;;2.59;100.00
39739;BME280;25422;48.286;8.484;2023-02-03T13:24:03;95201.34;;;2.62;100.00
39739;BME280;25422;48.286;8.484;2023-02-03T13:34:34;95235.78;;;2.62;100.00
39739;BME280;25422;48.286;8.484;2023-02-03T13:42:27;95231.75;;;2.58;100.00
39739;BME280;25422;48.286;8.484;2023-02-03T13:50:33;95229.16;;;2.58;100.00
39739;BME280;25422;48.286;8.484;2023-02-03T13:53:03;95213.34;;;2.63;100.00
39739;BME280;25422;48.286;8.484;2023-02-03T13:58:00;95193.53;;;2.63;100.00
39739;BME280;25422;48.286;8.484;2023-02-03T14:05:47;95133.81;;;2.68;100.00
39739;BME280;25422;48.286;8.484;2023-02-03T14:16:44;95177.88;;;2.79;100.00
39739;BME280;25422;48.286;8.484;2023-02-03T14:22:08;95199.56;;;2.77;100.00
39739;BME280;25422;48.286;8.484;2023-02-03T14:24:42;95184.91;;;2.77;100.00
39739;BME280;25422;48.286;8.484;2023-02-03T14:27:19;95186.66;;;2.77;100.00
39739;BME280;25422;48.286;8.484;2023-02-03T14:30:03;95178.19;;;2.75;100.00
39739;BME280;25422;48.286;8.484;2023-02-03T14:32:50;95151.41;;;2.76;100.00
39739;BME280;25422;48.286;8.484;2023-02-03T14:37:59;95146.78;;;2.81;100.00
39739;BME280;25422;48.286;8.484;2023-02-03T14:43:30;95137.38;;;2.80;100.00
39739;BME280;25422;48.286;8.484;2023-02-03T14:51:34;95154.28;;;2.71;100.00
39739;BME280;25422;48.286;8.484;2023-02-03T14:57:53;95171.56;;;2.56;100.00
39739;BME280;25422;48.286;8.484;2023-02-03T15:00:03;95177.13;;;2.50;100.00
39739;BME280;25422;48.286;8.484;2023-02-03T15:02:30;95169.50;;;2.48;100.00
39739;BME280;25422;48.286;8.484;2023-02-03T15:07:42;95186.28;;;2.41;100.00
39739;BME280;25422;48.286;8.484;2023-02-03T15:10:20;95193.41;;;2.38;100.00
39739;BME280;25422;48.286;8.484;2023-02-03T15:12:50;95203.81;;;2.36;100.00
39739;BME280;25422;48.286;8.484;2023-02-03T15:17:46;95232.69;;;2.28;100.00